createdAt,value
2019-04-11T00:01:48.234Z,22.03
2019-04-11T00:04:11.061Z,22.02
2019-04-11T00:06:37.083Z,22.03
2019-04-11T00:09:03.100Z,22.03
2019-04-11T00:11:30.102Z,22.02
2019-04-11T00:13:55.732Z,22.02
2019-04-11T00:16:21.443Z,22.02
2019-04-11T00:18:47.267Z,22.03
2019-04-11T00:21:13.277Z,22.02
2019-04-11T00:23:40.496Z,22.02
2019-04-11T00:26:06.486Z,22.02
2019-04-11T00:28:31.983Z,22.01
2019-04-11T00:30:57.314Z,22.01
2019-04-11T00:33:24.675Z,22.02
2019-04-11T00:35:50.217Z,22.02
2019-04-11T00:38:15.980Z,22.02
2019-04-11T00:40:41.641Z,22.01
2019-04-11T00:43:07.449Z,22.01
2019-04-11T00:45:33.920Z,22.01
2019-04-11T00:47:59.688Z,22.01
2019-04-11T00:50:25.461Z,22.01
2019-04-11T00:52:51.687Z,22.01
2019-04-11T00:55:17.663Z,22.01
2019-04-11T00:57:43.480Z,22.01
2019-04-11T01:00:09.477Z,22.01
2019-04-11T01:02:35.872Z,22.01
2019-04-11T01:05:01.512Z,22.01
2019-04-11T01:07:27.567Z,22.01
2019-04-11T01:09:54.790Z,22.01
2019-04-11T01:12:20.555Z,22.01
2019-04-11T01:14:46.826Z,22.01
2019-04-11T01:17:12.734Z,22.01
2019-04-11T01:19:38.592Z,22.01
2019-04-11T01:22:03.730Z,22.00
2019-04-11T01:24:29.733Z,22.01
2019-04-11T01:26:55.752Z,22.00
2019-04-11T01:29:22.991Z,22.01
2019-04-11T01:31:47.782Z,22.01
2019-04-11T01:34:13.776Z,22.00
2019-04-11T01:36:39.781Z,22.00
2019-04-11T01:39:05.803Z,22.00
2019-04-11T01:41:31.818Z,22.00
2019-04-11T01:44:02.224Z,22.00
2019-04-11T01:46:24.406Z,22.00
2019-04-11T01:48:50.047Z,22.00
2019-04-11T01:51:15.857Z,22.00
2019-04-11T01:53:42.217Z,22.00
2019-04-11T01:56:07.883Z,22.00
2019-04-11T01:58:35.022Z,22.00
2019-04-11T02:01:00.797Z,22.00
2019-04-11T02:03:26.025Z,22.00
2019-04-11T02:05:52.041Z,22.00
2019-04-11T02:08:18.063Z,22.00
2019-04-11T02:10:45.241Z,21.99
2019-04-11T02:13:10.079Z,22.00
2019-04-11T02:15:36.677Z,21.99
2019-04-11T02:18:03.283Z,22.00
2019-04-11T02:20:29.091Z,22.00
2019-04-11T02:22:54.985Z,21.99
2019-04-11T02:25:20.549Z,21.99
2019-04-11T02:27:46.343Z,21.99
2019-04-11T02:30:14.368Z,21.99
2019-04-11T02:32:39.967Z,21.99
2019-04-11T02:35:06.985Z,22.00
2019-04-11T02:37:31.664Z,21.99
2019-04-11T02:39:57.952Z,21.99
2019-04-11T02:42:23.370Z,21.99
2019-04-11T02:45:03.335Z,21.99
2019-04-11T02:47:20.288Z,21.99
2019-04-11T02:49:41.212Z,21.99
2019-04-11T02:52:07.134Z,21.99
2019-04-11T02:54:33.476Z,21.99
2019-04-11T02:57:00.064Z,21.99
2019-04-11T02:59:25.419Z,21.99
2019-04-11T03:01:50.997Z,21.99
2019-04-11T03:04:16.783Z,22.00
2019-04-11T03:06:43.910Z,21.99
2019-04-11T03:09:08.474Z,21.99
2019-04-11T03:11:34.662Z,21.99
2019-04-11T03:14:03.203Z,21.99
2019-04-11T03:16:38.248Z,21.99
2019-04-11T03:19:08.576Z,21.99
2019-04-11T03:21:21.742Z,21.99
2019-04-11T03:23:44.542Z,21.99
2019-04-11T03:26:12.382Z,21.99
2019-04-11T03:28:38.845Z,21.99
2019-04-11T03:31:32.686Z,21.98
2019-04-11T03:34:25.049Z,21.99
2019-04-11T03:38:43.029Z,21.98
2019-04-11T03:41:08.552Z,21.98
2019-04-11T03:43:28.183Z,21.98
2019-04-11T03:46:01.841Z,21.98
2019-04-11T03:48:19.700Z,21.98
2019-04-11T03:50:32.819Z,21.99
2019-04-11T03:52:59.480Z,21.99
2019-04-11T03:55:23.411Z,22.00
2019-04-11T03:57:49.255Z,22.00
2019-04-11T04:00:15.665Z,22.00
2019-04-11T04:02:41.417Z,22.01
2019-04-11T04:05:08.823Z,22.01
2019-04-11T04:07:33.971Z,22.01
2019-04-11T04:10:00.400Z,22.01
2019-04-11T04:12:25.215Z,22.01
2019-04-11T04:14:51.585Z,22.00
2019-04-11T04:17:19.131Z,22.00
2019-04-11T04:19:43.729Z,22.00
2019-04-11T04:22:09.248Z,21.99
2019-04-11T04:24:39.032Z,21.99
2019-04-11T04:27:01.922Z,21.99
2019-04-11T04:29:29.114Z,22.00
2019-04-11T04:31:54.981Z,22.00
2019-04-11T04:34:19.733Z,21.99
2019-04-11T04:36:45.452Z,21.99
2019-04-11T04:39:12.593Z,21.99
2019-04-11T04:41:41.381Z,21.99
2019-04-11T04:44:04.589Z,21.99
2019-04-11T04:46:45.341Z,21.99
2019-04-11T04:48:56.123Z,21.98
2019-04-11T04:51:24.089Z,21.99
2019-04-11T04:53:48.096Z,21.98
2019-04-11T04:56:15.740Z,21.99
2019-04-11T04:58:40.020Z,21.99
2019-04-11T05:01:06.940Z,22.00
2019-04-11T05:03:32.116Z,22.01
2019-04-11T05:05:58.334Z,22.02
2019-04-11T05:08:24.989Z,22.03
2019-04-11T05:10:51.274Z,22.02
2019-04-11T05:13:17.203Z,22.02
2019-04-11T05:15:43.451Z,22.03
2019-04-11T05:18:08.915Z,22.03
2019-04-11T05:20:34.285Z,22.03
2019-04-11T05:23:00.073Z,22.04
2019-04-11T05:25:26.468Z,22.03
2019-04-11T05:27:52.128Z,22.03
2019-04-11T05:30:18.763Z,22.03
2019-04-11T05:32:45.185Z,22.03
2019-04-11T05:35:11.051Z,22.02
2019-04-11T05:37:36.346Z,22.02
2019-04-11T05:40:03.131Z,22.02
2019-04-11T05:42:29.237Z,22.02
2019-04-11T05:44:54.736Z,22.02
2019-04-11T05:47:21.341Z,22.02
2019-04-11T05:49:46.672Z,22.02
2019-04-11T05:52:12.385Z,22.01
2019-04-11T05:54:41.375Z,22.02
2019-04-11T05:57:04.467Z,22.02
2019-04-11T05:59:30.699Z,22.02
2019-04-11T06:02:02.674Z,22.01
2019-04-11T06:04:26.487Z,22.01
2019-04-11T06:06:48.734Z,22.01
2019-04-11T06:09:16.221Z,22.01
2019-04-11T06:11:41.170Z,22.01
2019-04-11T06:14:07.417Z,22.02
2019-04-11T06:16:39.633Z,22.02
2019-04-11T06:18:58.885Z,22.02
2019-04-11T06:21:24.870Z,22.02
2019-04-11T06:23:51.775Z,22.02
2019-04-11T06:26:16.984Z,22.03
2019-04-11T06:28:43.000Z,22.03
2019-04-11T06:31:09.654Z,22.03
2019-04-11T06:33:35.054Z,22.03
2019-04-11T06:36:02.082Z,22.03
2019-04-11T06:38:27.131Z,22.04
2019-04-11T06:40:54.401Z,22.04
2019-04-11T06:43:20.236Z,22.04
2019-04-11T06:45:46.108Z,22.04
2019-04-11T06:48:11.582Z,22.05
2019-04-11T06:50:37.632Z,22.05
2019-04-11T06:53:04.398Z,22.03
2019-04-11T06:55:29.377Z,22.04
2019-04-11T06:57:56.362Z,22.05
2019-04-11T07:00:21.503Z,22.05
2019-04-11T07:02:48.603Z,22.03
2019-04-11T07:05:14.018Z,22.03
2019-04-11T07:07:40.591Z,22.03
2019-04-11T07:10:06.209Z,22.03
2019-04-11T07:12:32.881Z,22.02
2019-04-11T07:14:58.071Z,22.02
2019-04-11T07:17:23.683Z,22.01
2019-04-11T07:19:49.718Z,22.02
2019-04-11T07:22:15.779Z,22.03
2019-04-11T07:24:41.789Z,22.03
2019-04-11T07:27:07.804Z,22.03
2019-04-11T07:29:33.868Z,22.04
2019-04-11T07:32:00.902Z,22.05
2019-04-11T07:34:26.818Z,22.05
2019-04-11T07:36:51.935Z,22.04
2019-04-11T07:39:17.954Z,22.05
2019-04-11T07:41:45.658Z,22.06
2019-04-11T07:44:10.089Z,22.06
2019-04-11T07:46:36.222Z,22.06
2019-04-11T07:49:02.238Z,22.06
2019-04-11T07:51:28.286Z,22.06
2019-04-11T07:53:54.691Z,22.06
2019-04-11T07:56:20.846Z,22.07
2019-04-11T07:58:46.286Z,22.06
2019-04-11T08:01:12.631Z,22.06
2019-04-11T08:03:38.304Z,22.06
2019-04-11T08:06:05.213Z,22.06
2019-04-11T08:08:30.387Z,22.06
2019-04-11T08:10:56.386Z,22.04
2019-04-11T08:13:22.659Z,22.05
2019-04-11T08:15:48.397Z,22.05
2019-04-11T08:18:14.735Z,22.05
2019-04-11T08:20:41.502Z,22.05
2019-04-11T08:23:07.499Z,22.06
2019-04-11T08:25:33.495Z,22.07
2019-04-11T08:28:02.422Z,22.07
2019-04-11T08:30:24.698Z,22.08
2019-04-11T08:32:51.855Z,22.07
2019-04-11T08:35:17.636Z,22.08
2019-04-11T08:37:43.428Z,22.07
2019-04-11T08:40:09.385Z,22.06
2019-04-11T08:42:37.206Z,22.06
2019-04-11T08:45:00.714Z,22.06
2019-04-11T08:47:40.208Z,22.06
2019-04-11T08:49:52.723Z,22.06
2019-04-11T08:52:18.755Z,22.05
2019-04-11T08:54:45.858Z,22.05
2019-04-11T08:57:11.767Z,22.06
2019-04-11T08:59:37.761Z,22.05
2019-04-11T09:02:02.871Z,22.05
2019-04-11T09:04:30.145Z,22.05
2019-04-11T09:06:54.937Z,22.04
2019-04-11T09:09:21.036Z,22.04
2019-04-11T09:11:47.103Z,22.05
2019-04-11T09:14:13.789Z,22.03
2019-04-11T09:16:39.660Z,22.04
2019-04-11T09:19:06.221Z,22.04
2019-04-11T09:21:32.003Z,22.03
2019-04-11T09:23:57.725Z,22.03
2019-04-11T09:26:23.581Z,22.03
2019-04-11T09:28:49.531Z,22.03
2019-04-11T09:31:15.436Z,22.03
2019-04-11T09:33:41.452Z,22.02
2019-04-11T09:36:07.941Z,22.03
2019-04-11T09:38:33.288Z,22.02
2019-04-11T09:41:00.442Z,22.03
2019-04-11T09:43:26.286Z,22.03
2019-04-11T09:45:52.423Z,22.02
2019-04-11T09:48:19.263Z,22.03
2019-04-11T09:50:43.365Z,22.02
2019-04-11T09:53:09.959Z,22.03
2019-04-11T09:55:35.428Z,22.02
2019-04-11T09:58:02.849Z,22.02
2019-04-11T10:00:28.818Z,22.02
2019-04-11T10:02:53.506Z,22.02
2019-04-11T10:05:20.132Z,22.02
2019-04-11T10:07:46.101Z,22.02
2019-04-11T10:10:12.744Z,22.02
2019-04-11T10:12:38.321Z,22.01
2019-04-11T10:15:05.017Z,22.02
2019-04-11T10:17:29.802Z,22.02
2019-04-11T10:19:56.123Z,22.02
2019-04-11T10:22:22.715Z,22.00
2019-04-11T10:24:48.443Z,22.02
2019-04-11T10:27:14.357Z,22.01
2019-04-11T10:29:40.168Z,22.01
2019-04-11T10:32:06.709Z,22.01
2019-04-11T10:34:33.277Z,22.01
2019-04-11T10:36:59.176Z,22.01
2019-04-11T10:39:24.969Z,22.01
2019-04-11T10:41:50.545Z,22.00
2019-04-11T10:44:16.560Z,22.01
2019-04-11T10:46:43.644Z,22.01
2019-04-11T10:49:09.457Z,22.00
2019-04-11T10:51:35.851Z,22.00
2019-04-11T10:54:02.922Z,22.00
2019-04-11T10:56:26.697Z,22.00
2019-04-11T10:58:53.294Z,22.00
2019-04-11T11:01:19.821Z,22.00
2019-04-11T11:03:45.240Z,22.00
2019-04-11T11:06:11.521Z,21.99
2019-04-11T11:08:37.596Z,22.01
2019-04-11T11:11:03.759Z,22.01
2019-04-11T11:13:29.893Z,22.01
2019-04-11T11:15:56.031Z,22.01
2019-04-11T11:18:42.894Z,22.01
2019-04-11T11:20:53.928Z,22.01
2019-04-11T11:23:14.074Z,22.01
2019-04-11T11:25:39.443Z,22.01
2019-04-11T11:28:05.503Z,22.01
2019-04-11T11:30:31.631Z,22.02
2019-04-11T11:32:58.115Z,22.02
2019-04-11T11:35:27.607Z,22.02
2019-04-11T11:37:49.639Z,22.03
2019-04-11T11:40:17.985Z,22.03
2019-04-11T11:42:42.141Z,22.04
2019-04-11T11:45:08.940Z,22.04
2019-04-11T11:47:38.054Z,22.04
2019-04-11T11:50:02.494Z,22.04
2019-04-11T11:52:26.859Z,22.05
2019-04-11T11:54:51.855Z,22.05
2019-04-11T11:57:18.350Z,22.06
2019-04-11T11:59:44.916Z,22.05
2019-04-11T12:02:10.674Z,22.06
2019-04-11T12:04:37.448Z,22.07
2019-04-11T12:07:03.860Z,22.06
2019-04-11T12:09:28.729Z,22.06
2019-04-11T12:11:54.454Z,22.07
2019-04-11T12:14:20.128Z,22.08
2019-04-11T12:16:48.207Z,22.08
2019-04-11T12:19:16.051Z,22.08
2019-04-11T12:21:38.899Z,22.09
2019-04-11T12:24:06.523Z,22.09
2019-04-11T12:26:33.330Z,22.10
2019-04-11T12:28:56.172Z,22.11
2019-04-11T12:31:22.226Z,22.11
2019-04-11T12:33:48.236Z,22.11
2019-04-11T12:36:14.668Z,22.12
2019-04-11T12:38:40.274Z,22.13
2019-04-11T12:41:06.284Z,22.13
2019-04-11T12:43:32.313Z,22.14
2019-04-11T12:45:58.333Z,22.14
2019-04-11T12:48:24.353Z,22.14
2019-04-11T12:50:50.395Z,22.15
2019-04-11T12:53:16.408Z,22.15
2019-04-11T12:55:42.401Z,22.16
2019-04-11T12:58:08.504Z,22.16
2019-04-11T13:00:34.544Z,22.17
2019-04-11T13:03:00.535Z,22.16
2019-04-11T13:05:26.589Z,22.16
2019-04-11T13:07:52.598Z,22.16
2019-04-11T13:10:18.632Z,22.16
2019-04-11T13:12:44.655Z,22.17
2019-04-11T13:15:10.666Z,22.16
2019-04-11T13:17:36.728Z,22.16
2019-04-11T13:20:04.926Z,22.16
2019-04-11T13:22:28.899Z,22.16
2019-04-11T13:24:54.935Z,22.16
2019-04-11T13:27:20.947Z,22.16
2019-04-11T13:29:47.341Z,22.17
2019-04-11T13:32:13.334Z,22.17
2019-04-11T13:34:39.356Z,22.16
2019-04-11T13:37:05.425Z,22.17
2019-04-11T13:39:31.434Z,22.15
2019-04-11T13:41:57.428Z,22.16
2019-04-11T13:44:23.461Z,22.16
2019-04-11T13:46:49.467Z,22.16
2019-04-11T13:49:15.520Z,22.17
2019-04-11T13:51:41.564Z,22.18
2019-04-11T13:54:07.610Z,22.18
2019-04-11T13:56:35.029Z,22.18
2019-04-11T13:59:01.051Z,22.18
2019-04-11T14:01:27.041Z,22.18
2019-04-11T14:03:53.073Z,22.18
2019-04-11T14:06:19.131Z,22.17
2019-04-11T14:08:45.129Z,22.18
2019-04-11T14:11:11.182Z,22.18
2019-04-11T14:13:37.323Z,22.17
2019-04-11T14:16:03.450Z,22.17
2019-04-11T14:18:29.471Z,22.19
2019-04-11T14:20:55.481Z,22.20
2019-04-11T14:23:21.535Z,22.21
2019-04-11T14:25:47.548Z,22.20
2019-04-11T14:28:13.588Z,22.21
2019-04-11T14:30:39.590Z,22.22
2019-04-11T14:33:05.601Z,22.24
2019-04-11T14:35:31.618Z,22.23
2019-04-11T14:37:57.640Z,22.24
2019-04-11T14:40:23.911Z,22.26
2019-04-11T14:42:49.916Z,22.26
2019-04-11T14:45:16.050Z,22.26
2019-04-11T14:47:42.063Z,22.25
2019-04-11T14:50:08.729Z,22.24
2019-04-11T14:52:34.110Z,22.23
2019-04-11T14:55:00.144Z,22.22
2019-04-11T14:57:26.158Z,22.23
2019-04-11T14:59:54.167Z,22.25
2019-04-11T15:02:18.195Z,22.23
2019-04-11T15:04:44.626Z,22.22
2019-04-11T15:07:10.401Z,22.23
2019-04-11T15:09:36.423Z,22.23
2019-04-11T15:12:02.506Z,22.26
2019-04-11T15:14:28.548Z,22.25
2019-04-11T15:16:54.600Z,22.28
2019-04-11T15:19:20.704Z,22.27
2019-04-11T15:21:46.680Z,22.25
2019-04-11T15:24:12.762Z,22.24
2019-04-11T15:26:38.912Z,22.24
2019-04-11T15:29:04.917Z,22.24
2019-04-11T15:31:39.223Z,22.25
2019-04-11T15:33:56.962Z,22.29
2019-04-11T15:36:22.975Z,22.30
2019-04-11T15:38:48.990Z,22.31
2019-04-11T15:41:15.008Z,22.32
2019-04-11T15:43:43.319Z,22.34
2019-04-11T15:46:07.061Z,22.35
2019-04-11T15:48:33.082Z,22.35
2019-04-11T15:51:06.549Z,22.33
2019-04-11T15:53:25.157Z,22.32
2019-04-11T15:55:51.181Z,22.31
2019-04-11T15:58:17.185Z,22.30
2019-04-11T16:00:43.953Z,22.30
2019-04-11T16:03:09.469Z,22.29
2019-04-11T16:05:35.480Z,22.29
2019-04-11T16:08:01.511Z,22.29
2019-04-11T16:10:27.634Z,22.29
2019-04-11T16:12:53.640Z,22.27
2019-04-11T16:15:19.646Z,22.27
2019-04-11T16:17:45.667Z,22.26
2019-04-11T16:20:11.700Z,22.26
2019-04-11T16:22:37.763Z,22.26
2019-04-11T16:25:03.755Z,22.27
2019-04-11T16:27:29.759Z,22.25
2019-04-11T16:29:55.803Z,22.24
2019-04-11T16:32:21.849Z,22.25
2019-04-11T16:34:48.884Z,22.24
2019-04-11T16:37:17.757Z,22.23
2019-04-11T16:39:39.907Z,22.23
2019-04-11T16:42:05.982Z,22.22
2019-04-11T16:44:31.944Z,22.22
2019-04-11T16:46:57.941Z,22.21
2019-04-11T16:49:26.062Z,22.21
2019-04-11T16:51:50.158Z,22.20
2019-04-11T16:54:16.167Z,22.19
2019-04-11T16:56:43.878Z,22.20
2019-04-11T16:59:08.167Z,22.20
2019-04-11T17:01:34.561Z,22.20
2019-04-11T17:04:00.550Z,22.20
2019-04-11T17:06:26.590Z,22.19
2019-04-11T17:08:56.131Z,22.20
2019-04-11T17:11:19.086Z,22.20
2019-04-11T17:13:44.760Z,22.20
2019-04-11T17:16:11.385Z,22.19
2019-04-11T17:18:37.405Z,22.20
2019-04-11T17:21:03.420Z,22.20
2019-04-11T17:23:29.479Z,22.20
2019-04-11T17:25:55.476Z,22.20
2019-04-11T17:28:23.073Z,22.22
2019-04-11T17:30:47.561Z,22.23
2019-04-11T17:33:13.578Z,22.24
2019-04-11T17:35:39.571Z,22.26
2019-04-11T17:38:08.020Z,22.27
2019-04-11T17:40:31.597Z,22.29
2019-04-11T17:42:57.592Z,22.31
2019-04-11T17:45:23.722Z,22.30
2019-04-11T17:47:49.723Z,22.30
2019-04-11T17:50:15.797Z,22.30
2019-04-11T17:52:42.048Z,22.29
2019-04-11T17:55:08.061Z,22.29
2019-04-11T17:57:34.149Z,22.30
2019-04-11T18:00:00.163Z,22.31
2019-04-11T18:02:26.576Z,22.31
2019-04-11T18:04:52.594Z,22.31
2019-04-11T18:07:18.690Z,22.32
2019-04-11T18:09:44.710Z,22.32
2019-04-11T18:12:10.748Z,22.31
2019-04-11T18:14:36.750Z,22.31
2019-04-11T18:17:04.644Z,22.31
2019-04-11T18:19:28.802Z,22.31
2019-04-11T18:21:55.018Z,22.31
2019-04-11T18:24:21.038Z,22.31
2019-04-11T18:26:47.045Z,22.31
2019-04-11T18:29:13.088Z,22.32
2019-04-11T18:31:39.115Z,22.34
2019-04-11T18:34:05.137Z,22.34
2019-04-11T18:36:32.050Z,22.35
2019-04-11T18:38:57.285Z,22.35
2019-04-11T18:41:23.278Z,22.36
2019-04-11T18:43:50.830Z,22.36
2019-04-11T18:46:15.329Z,22.37
2019-04-11T18:48:41.341Z,22.38
2019-04-11T18:51:07.512Z,22.37
2019-04-11T18:53:33.546Z,22.39
2019-04-11T18:56:01.568Z,22.38
2019-04-11T18:58:25.653Z,22.38
2019-04-11T19:00:51.658Z,22.38
2019-04-11T19:03:17.673Z,22.38
2019-04-11T19:05:43.878Z,22.37
2019-04-11T19:08:12.898Z,22.37
2019-04-11T19:10:35.950Z,22.37
2019-04-11T19:13:01.964Z,22.36
2019-04-11T19:15:27.993Z,22.37
2019-04-11T19:18:05.599Z,22.36
2019-04-11T19:20:20.125Z,22.37
2019-04-11T19:22:46.139Z,22.36
2019-04-11T19:25:12.521Z,22.36
2019-04-11T19:27:38.175Z,22.36
2019-04-11T19:30:04.211Z,22.36
2019-04-11T19:32:30.224Z,22.36
2019-04-11T19:34:56.249Z,22.36
2019-04-11T19:37:22.408Z,22.37
2019-04-11T19:39:48.453Z,22.36
2019-04-11T19:42:18.609Z,22.36
2019-04-11T19:44:40.500Z,22.36
2019-04-11T19:47:06.518Z,22.36
2019-04-11T19:49:32.620Z,22.35
2019-04-11T19:52:00.938Z,22.36
2019-04-11T19:54:24.772Z,22.36
2019-04-11T19:56:50.794Z,22.36
2019-04-11T19:59:16.795Z,22.35
2019-04-11T20:01:42.829Z,22.36
2019-04-11T20:04:08.865Z,22.36
2019-04-11T20:06:34.883Z,22.36
2019-04-11T20:09:01.059Z,22.36
2019-04-11T20:11:29.371Z,22.36
2019-04-11T20:13:52.912Z,22.36
2019-04-11T20:16:18.940Z,22.35
2019-04-11T20:18:50.833Z,22.35
2019-04-11T20:21:10.986Z,22.36
2019-04-11T20:23:41.454Z,22.36
2019-04-11T20:26:03.100Z,22.35
2019-04-11T20:28:29.112Z,22.34
2019-04-11T20:30:55.131Z,22.34
2019-04-11T20:33:26.958Z,22.33
2019-04-11T20:35:47.120Z,22.33
2019-04-11T20:38:15.878Z,22.32
2019-04-11T20:40:39.141Z,22.32
2019-04-11T20:43:05.161Z,22.32
2019-04-11T20:45:31.156Z,22.31
2019-04-11T20:47:59.856Z,22.31
2019-04-11T20:50:23.196Z,22.30
2019-04-11T20:52:49.194Z,22.31
2019-04-11T20:55:15.192Z,22.30
2019-04-11T20:57:41.202Z,22.29
2019-04-11T21:00:07.213Z,22.29
2019-04-11T21:02:33.207Z,22.29
2019-04-11T21:05:01.150Z,22.28
2019-04-11T21:07:25.227Z,22.28
2019-04-11T21:09:51.281Z,22.28
2019-04-11T21:12:17.303Z,22.28
2019-04-11T21:14:43.297Z,22.27
2019-04-11T21:17:09.325Z,22.27
2019-04-11T21:19:35.319Z,22.26
2019-04-11T21:22:01.346Z,22.26
2019-04-11T21:24:30.583Z,22.26
2019-04-11T21:26:53.338Z,22.26
2019-04-11T21:29:19.332Z,22.26
2019-04-11T21:31:45.448Z,22.25
2019-04-11T21:34:11.460Z,22.25
2019-04-11T21:36:37.451Z,22.25
2019-04-11T21:39:04.402Z,22.25
2019-04-11T21:41:29.487Z,22.25
2019-04-11T21:43:55.538Z,22.24
2019-04-11T21:46:21.567Z,22.23
2019-04-11T21:48:47.567Z,22.23
2019-04-11T21:51:13.568Z,22.23
2019-04-11T21:53:39.584Z,22.23
2019-04-11T21:56:05.601Z,22.23
2019-04-11T21:58:31.619Z,22.23
2019-04-11T22:00:57.633Z,22.23
2019-04-11T22:03:24.280Z,22.23
2019-04-11T22:05:49.675Z,22.22
2019-04-11T22:08:15.667Z,22.21
2019-04-11T22:10:41.690Z,22.22
2019-04-11T22:13:09.829Z,22.21
2019-04-11T22:15:33.723Z,22.21
2019-04-11T22:17:59.748Z,22.20
2019-04-11T22:20:25.774Z,22.20
2019-04-11T22:22:51.795Z,22.20
2019-04-11T22:25:17.784Z,22.20
2019-04-11T22:27:43.823Z,22.20
2019-04-11T22:30:09.817Z,22.21
2019-04-11T22:32:35.833Z,22.20
2019-04-11T22:35:01.845Z,22.19
2019-04-11T22:37:30.080Z,22.20
2019-04-11T22:39:53.851Z,22.19
2019-04-11T22:42:19.879Z,22.19
2019-04-11T22:44:45.898Z,22.19
2019-04-11T22:47:11.918Z,22.19
2019-04-11T22:49:39.472Z,22.19
2019-04-11T22:52:03.927Z,22.19
2019-04-11T22:54:29.940Z,22.18
2019-04-11T22:56:55.969Z,22.19
2019-04-11T22:59:21.979Z,22.19
2019-04-11T23:01:48.063Z,22.18
2019-04-11T23:04:16.824Z,22.18
2019-04-11T23:06:40.069Z,22.18
2019-04-11T23:09:06.094Z,22.18
2019-04-11T23:11:32.094Z,22.18
2019-04-11T23:13:58.111Z,22.17
2019-04-11T23:16:24.125Z,22.18
2019-04-11T23:18:50.136Z,22.17
2019-04-11T23:21:16.151Z,22.17
2019-04-11T23:23:42.196Z,22.17
2019-04-11T23:26:08.192Z,22.17
2019-04-11T23:28:34.212Z,22.17
2019-04-11T23:31:00.229Z,22.17
2019-04-11T23:33:26.213Z,22.17
2019-04-11T23:35:52.226Z,22.16
2019-04-11T23:38:18.322Z,22.16
2019-04-11T23:40:44.348Z,22.16
2019-04-11T23:43:10.357Z,22.16
2019-04-11T23:45:36.416Z,22.16
2019-04-11T23:48:02.459Z,22.16
2019-04-11T23:50:28.443Z,22.16
2019-04-11T23:52:57.024Z,22.15
2019-04-11T23:55:20.468Z,22.15
2019-04-11T23:57:46.493Z,22.15
